sensor_id;sensor_type;location;lat;lon;timestamp;P1;durP1;ratioP1;P2;durP2;ratioP2
15408;SDS011;7803;48.130;13.788;2023-12-20T00:02:09;12.20;;;11.00;;
15408;SDS011;7803;48.130;13.788;2023-12-20T00:05:13;12.98;;;11.40;;
15408;SDS011;7803;48.130;13.788;2023-12-20T00:08:15;14.55;;;11.98;;
15408;SDS011;7803;48.130;13.788;2023-12-20T00:11:17;15.13;;;11.88;;
15408;SDS011;7803;48.130;13.788;2023-12-20T00:14:19;10.95;;;9.50;;
15408;SDS011;7803;48.130;13.788;2023-12-20T00:17:21;9.60;;;8.60;;
15408;SDS011;7803;48.130;13.788;2023-12-20T00:20:24;10.05;;;8.95;;
15408;SDS011;7803;48.130;13.788;2023-12-20T00:23:26;11.80;;;9.88;;
15408;SDS011;7803;48.130;13.788;2023-12-20T00:26:28;12.75;;;10.57;;
15408;SDS011;7803;48.130;13.788;2023-12-20T00:29:30;11.05;;;9.95;;
15408;SDS011;7803;48.130;13.788;2023-12-20T00:32:32;11.77;;;10.40;;
15408;SDS011;7803;48.130;13.788;2023-12-20T00:35:35;11.15;;;10.05;;
15408;SDS011;7803;48.130;13.788;2023-12-20T00:38:37;10.90;;;9.80;;
15408;SDS011;7803;48.130;13.788;2023-12-20T00:41:39;11.20;;;10.10;;
15408;SDS011;7803;48.130;13.788;2023-12-20T00:44:41;11.35;;;10.25;;
15408;SDS011;7803;48.130;13.788;2023-12-20T00:47:43;12.07;;;10.82;;
15408;SDS011;7803;48.130;13.788;2023-12-20T00:50:46;10.65;;;9.55;;
15408;SDS011;7803;48.130;13.788;2023-12-20T00:53:49;11.63;;;10.43;;
15408;SDS011;7803;48.130;13.788;2023-12-20T00:56:54;11.50;;;10.30;;
15408;SDS011;7803;48.130;13.788;2023-12-20T00:59:56;11.45;;;10.20;;
15408;SDS011;7803;48.130;13.788;2023-12-20T01:02:58;12.27;;;10.95;;
15408;SDS011;7803;48.130;13.788;2023-12-20T01:06:01;11.13;;;10.00;;
15408;SDS011;7803;48.130;13.788;2023-12-20T01:09:04;11.52;;;10.23;;
15408;SDS011;7803;48.130;13.788;2023-12-20T01:12:06;11.70;;;10.50;;
15408;SDS011;7803;48.130;13.788;2023-12-20T01:15:08;11.85;;;10.65;;
15408;SDS011;7803;48.130;13.788;2023-12-20T01:18:11;11.18;;;10.00;;
15408;SDS011;7803;48.130;13.788;2023-12-20T01:21:14;11.80;;;10.60;;
15408;SDS011;7803;48.130;13.788;2023-12-20T01:24:16;12.13;;;10.77;;
15408;SDS011;7803;48.130;13.788;2023-12-20T01:27:18;11.38;;;10.18;;
15408;SDS011;7803;48.130;13.788;2023-12-20T01:30:20;11.38;;;10.27;;
15408;SDS011;7803;48.130;13.788;2023-12-20T01:33:22;11.45;;;10.35;;
15408;SDS011;7803;48.130;13.788;2023-12-20T01:36:25;11.05;;;9.95;;
15408;SDS011;7803;48.130;13.788;2023-12-20T01:39:27;11.63;;;10.40;;
15408;SDS011;7803;48.130;13.788;2023-12-20T01:42:29;12.07;;;10.82;;
15408;SDS011;7803;48.130;13.788;2023-12-20T01:45:31;11.13;;;9.93;;
15408;SDS011;7803;48.130;13.788;2023-12-20T01:48:33;11.32;;;9.88;;
15408;SDS011;7803;48.130;13.788;2023-12-20T01:51:38;12.13;;;10.88;;
15408;SDS011;7803;48.130;13.788;2023-12-20T01:54:40;10.32;;;9.32;;
15408;SDS011;7803;48.130;13.788;2023-12-20T01:57:43;11.50;;;10.25;;
15408;SDS011;7803;48.130;13.788;2023-12-20T02:00:47;10.65;;;9.55;;
15408;SDS011;7803;48.130;13.788;2023-12-20T02:03:50;11.40;;;10.30;;
15408;SDS011;7803;48.130;13.788;2023-12-20T02:06:54;10.82;;;9.73;;
15408;SDS011;7803;48.130;13.788;2023-12-20T02:09:57;10.73;;;9.68;;
15408;SDS011;7803;48.130;13.788;2023-12-20T02:12:59;11.32;;;10.20;;
15408;SDS011;7803;48.130;13.788;2023-12-20T02:16:01;10.70;;;9.63;;
15408;SDS011;7803;48.130;13.788;2023-12-20T02:19:04;10.23;;;9.23;;
15408;SDS011;7803;48.130;13.788;2023-12-20T02:22:15;10.65;;;9.52;;
15408;SDS011;7803;48.130;13.788;2023-12-20T02:25:17;10.63;;;9.50;;
15408;SDS011;7803;48.130;13.788;2023-12-20T02:28:19;10.38;;;9.35;;
15408;SDS011;7803;48.130;13.788;2023-12-20T02:31:23;9.95;;;9.05;;
15408;SDS011;7803;48.130;13.788;2023-12-20T02:34:25;10.90;;;9.80;;
15408;SDS011;7803;48.130;13.788;2023-12-20T02:37:28;14.90;;;10.75;;
15408;SDS011;7803;48.130;13.788;2023-12-20T02:40:30;10.43;;;9.32;;
15408;SDS011;7803;48.130;13.788;2023-12-20T02:43:32;10.15;;;9.13;;
15408;SDS011;7803;48.130;13.788;2023-12-20T02:46:34;10.02;;;9.02;;
15408;SDS011;7803;48.130;13.788;2023-12-20T02:49:36;9.82;;;8.82;;
15408;SDS011;7803;48.130;13.788;2023-12-20T02:52:40;10.18;;;9.18;;
15408;SDS011;7803;48.130;13.788;2023-12-20T02:55:44;10.32;;;9.30;;
15408;SDS011;7803;48.130;13.788;2023-12-20T02:58:46;9.48;;;8.57;;
15408;SDS011;7803;48.130;13.788;2023-12-20T03:01:48;9.52;;;8.60;;
15408;SDS011;7803;48.130;13.788;2023-12-20T03:04:49;9.77;;;8.77;;
15408;SDS011;7803;48.130;13.788;2023-12-20T03:07:53;9.93;;;8.93;;
15408;SDS011;7803;48.130;13.788;2023-12-20T03:10:55;9.80;;;8.75;;
15408;SDS011;7803;48.130;13.788;2023-12-20T03:13:57;10.02;;;9.00;;
15408;SDS011;7803;48.130;13.788;2023-12-20T03:16:59;9.40;;;8.50;;
15408;SDS011;7803;48.130;13.788;2023-12-20T03:20:01;10.13;;;9.13;;
15408;SDS011;7803;48.130;13.788;2023-12-20T03:23:04;9.57;;;8.23;;
15408;SDS011;7803;48.130;13.788;2023-12-20T03:26:06;9.15;;;8.25;;
15408;SDS011;7803;48.130;13.788;2023-12-20T03:29:08;9.23;;;8.32;;
15408;SDS011;7803;48.130;13.788;2023-12-20T03:32:10;8.88;;;7.97;;
15408;SDS011;7803;48.130;13.788;2023-12-20T03:35:12;9.73;;;8.73;;
15408;SDS011;7803;48.130;13.788;2023-12-20T03:38:16;9.27;;;8.38;;
15408;SDS011;7803;48.130;13.788;2023-12-20T03:41:18;9.52;;;8.43;;
15408;SDS011;7803;48.130;13.788;2023-12-20T03:44:20;9.18;;;8.27;;
15408;SDS011;7803;48.130;13.788;2023-12-20T03:47:22;9.02;;;8.13;;
15408;SDS011;7803;48.130;13.788;2023-12-20T03:50:24;9.18;;;8.27;;
15408;SDS011;7803;48.130;13.788;2023-12-20T03:53:28;9.85;;;8.77;;
15408;SDS011;7803;48.130;13.788;2023-12-20T03:56:30;8.60;;;7.80;;
15408;SDS011;7803;48.130;13.788;2023-12-20T03:59:34;8.32;;;7.53;;
15408;SDS011;7803;48.130;13.788;2023-12-20T04:02:37;9.10;;;8.20;;
15408;SDS011;7803;48.130;13.788;2023-12-20T04:05:39;8.90;;;8.00;;
15408;SDS011;7803;48.130;13.788;2023-12-20T04:08:43;8.80;;;7.93;;
15408;SDS011;7803;48.130;13.788;2023-12-20T04:11:45;8.73;;;7.90;;
15408;SDS011;7803;48.130;13.788;2023-12-20T04:14:47;8.75;;;7.85;;
15408;SDS011;7803;48.130;13.788;2023-12-20T04:17:50;9.15;;;8.25;;
15408;SDS011;7803;48.130;13.788;2023-12-20T04:20:53;8.50;;;7.65;;
15408;SDS011;7803;48.130;13.788;2023-12-20T04:23:57;9.38;;;8.23;;
15408;SDS011;7803;48.130;13.788;2023-12-20T04:26:59;8.55;;;7.68;;
15408;SDS011;7803;48.130;13.788;2023-12-20T04:30:01;8.70;;;7.80;;
15408;SDS011;7803;48.130;13.788;2023-12-20T04:33:03;9.02;;;8.13;;
15408;SDS011;7803;48.130;13.788;2023-12-20T04:36:05;8.23;;;7.45;;
15408;SDS011;7803;48.130;13.788;2023-12-20T04:39:11;8.30;;;7.50;;
15408;SDS011;7803;48.130;13.788;2023-12-20T04:42:15;8.43;;;7.63;;
15408;SDS011;7803;48.130;13.788;2023-12-20T04:45:17;8.45;;;7.63;;
15408;SDS011;7803;48.130;13.788;2023-12-20T04:48:19;8.20;;;7.40;;
15408;SDS011;7803;48.130;13.788;2023-12-20T04:51:21;8.55;;;7.65;;
15408;SDS011;7803;48.130;13.788;2023-12-20T04:54:25;8.50;;;7.70;;
15408;SDS011;7803;48.130;13.788;2023-12-20T04:57:27;8.93;;;8.02;;
15408;SDS011;7803;48.130;13.788;2023-12-20T05:00:28;8.65;;;7.80;;
15408;SDS011;7803;48.130;13.788;2023-12-20T05:03:30;8.60;;;7.70;;
15408;SDS011;7803;48.130;13.788;2023-12-20T05:06:33;8.95;;;8.05;;
15408;SDS011;7803;48.130;13.788;2023-12-20T05:09:36;10.73;;;8.18;;
15408;SDS011;7803;48.130;13.788;2023-12-20T05:12:38;8.48;;;7.57;;
15408;SDS011;7803;48.130;13.788;2023-12-20T05:15:40;7.82;;;7.03;;
15408;SDS011;7803;48.130;13.788;2023-12-20T05:18:42;8.35;;;7.55;;
15408;SDS011;7803;48.130;13.788;2023-12-20T05:21:44;8.10;;;7.28;;
15408;SDS011;7803;48.130;13.788;2023-12-20T05:24:47;8.50;;;7.60;;
15408;SDS011;7803;48.130;13.788;2023-12-20T05:27:50;7.97;;;7.20;;
15408;SDS011;7803;48.130;13.788;2023-12-20T05:30:52;8.00;;;7.20;;
15408;SDS011;7803;48.130;13.788;2023-12-20T05:33:55;8.30;;;7.43;;
15408;SDS011;7803;48.130;13.788;2023-12-20T05:36:57;7.60;;;6.90;;
15408;SDS011;7803;48.130;13.788;2023-12-20T05:40:01;7.50;;;6.80;;
15408;SDS011;7803;48.130;13.788;2023-12-20T05:43:03;12.13;;;8.25;;
15408;SDS011;7803;48.130;13.788;2023-12-20T05:46:05;8.60;;;7.10;;
15408;SDS011;7803;48.130;13.788;2023-12-20T05:49:07;7.75;;;7.05;;
15408;SDS011;7803;48.130;13.788;2023-12-20T05:52:09;7.50;;;6.70;;
15408;SDS011;7803;48.130;13.788;2023-12-20T05:55:12;7.63;;;6.93;;
15408;SDS011;7803;48.130;13.788;2023-12-20T05:58:14;7.88;;;7.07;;
15408;SDS011;7803;48.130;13.788;2023-12-20T06:01:16;7.75;;;6.85;;
15408;SDS011;7803;48.130;13.788;2023-12-20T06:04:18;7.22;;;6.53;;
15408;SDS011;7803;48.130;13.788;2023-12-20T06:07:20;7.38;;;6.57;;
15408;SDS011;7803;48.130;13.788;2023-12-20T06:10:23;7.13;;;6.10;;
15408;SDS011;7803;48.130;13.788;2023-12-20T06:13:25;7.68;;;6.75;;
15408;SDS011;7803;48.130;13.788;2023-12-20T06:16:28;6.80;;;6.10;;
15408;SDS011;7803;48.130;13.788;2023-12-20T06:19:30;6.90;;;6.20;;
15408;SDS011;7803;48.130;13.788;2023-12-20T06:22:31;7.00;;;6.28;;
15408;SDS011;7803;48.130;13.788;2023-12-20T06:25:35;7.85;;;6.40;;
15408;SDS011;7803;48.130;13.788;2023-12-20T06:28:37;7.15;;;6.25;;
15408;SDS011;7803;48.130;13.788;2023-12-20T06:31:39;6.55;;;5.85;;
15408;SDS011;7803;48.130;13.788;2023-12-20T06:34:41;7.40;;;6.28;;
15408;SDS011;7803;48.130;13.788;2023-12-20T06:37:42;6.40;;;5.80;;
15408;SDS011;7803;48.130;13.788;2023-12-20T06:40:46;6.93;;;6.10;;
15408;SDS011;7803;48.130;13.788;2023-12-20T06:43:48;8.77;;;6.30;;
15408;SDS011;7803;48.130;13.788;2023-12-20T06:46:50;6.13;;;5.47;;
15408;SDS011;7803;48.130;13.788;2023-12-20T06:49:52;6.60;;;5.70;;
15408;SDS011;7803;48.130;13.788;2023-12-20T06:52:54;5.85;;;5.35;;
15408;SDS011;7803;48.130;13.788;2023-12-20T06:55:57;6.40;;;5.38;;
15408;SDS011;7803;48.130;13.788;2023-12-20T06:58:59;6.13;;;5.35;;
15408;SDS011;7803;48.130;13.788;2023-12-20T07:02:01;5.55;;;5.05;;
15408;SDS011;7803;48.130;13.788;2023-12-20T07:05:03;5.82;;;5.22;;
15408;SDS011;7803;48.130;13.788;2023-12-20T07:08:06;5.72;;;5.22;;
15408;SDS011;7803;48.130;13.788;2023-12-20T07:11:10;6.32;;;5.55;;
15408;SDS011;7803;48.130;13.788;2023-12-20T07:14:12;6.93;;;5.70;;
15408;SDS011;7803;48.130;13.788;2023-12-20T07:17:14;5.47;;;4.95;;
15408;SDS011;7803;48.130;13.788;2023-12-20T07:20:16;6.00;;;5.40;;
15408;SDS011;7803;48.130;13.788;2023-12-20T07:23:18;5.68;;;5.07;;
15408;SDS011;7803;48.130;13.788;2023-12-20T07:26:21;5.18;;;4.65;;
15408;SDS011;7803;48.130;13.788;2023-12-20T07:29:23;4.97;;;4.45;;
15408;SDS011;7803;48.130;13.788;2023-12-20T07:32:25;5.18;;;4.68;;
15408;SDS011;7803;48.130;13.788;2023-12-20T07:35:27;5.35;;;4.85;;
15408;SDS011;7803;48.130;13.788;2023-12-20T07:38:29;5.10;;;4.60;;
15408;SDS011;7803;48.130;13.788;2023-12-20T07:41:33;5.45;;;4.80;;
15408;SDS011;7803;48.130;13.788;2023-12-20T07:44:35;8.15;;;5.72;;
15408;SDS011;7803;48.130;13.788;2023-12-20T07:47:37;5.25;;;4.63;;
15408;SDS011;7803;48.130;13.788;2023-12-20T07:50:40;8.40;;;5.53;;
15408;SDS011;7803;48.130;13.788;2023-12-20T07:53:43;4.88;;;4.35;;
15408;SDS011;7803;48.130;13.788;2023-12-20T07:56:46;4.65;;;4.25;;
15408;SDS011;7803;48.130;13.788;2023-12-20T07:59:48;5.25;;;4.72;;
15408;SDS011;7803;48.130;13.788;2023-12-20T08:02:50;5.10;;;4.60;;
15408;SDS011;7803;48.130;13.788;2023-12-20T08:05:52;5.07;;;4.32;;
15408;SDS011;7803;48.130;13.788;2023-12-20T08:08:54;4.93;;;4.53;;
15408;SDS011;7803;48.130;13.788;2023-12-20T08:11:57;4.72;;;4.22;;
15408;SDS011;7803;48.130;13.788;2023-12-20T08:15:00;4.60;;;4.20;;
15408;SDS011;7803;48.130;13.788;2023-12-20T08:18:02;5.05;;;4.50;;
15408;SDS011;7803;48.130;13.788;2023-12-20T08:21:04;5.93;;;4.82;;
15408;SDS011;7803;48.130;13.788;2023-12-20T08:24:07;4.80;;;4.25;;
15408;SDS011;7803;48.130;13.788;2023-12-20T08:27:11;5.20;;;4.50;;
15408;SDS011;7803;48.130;13.788;2023-12-20T08:30:13;5.20;;;4.50;;
15408;SDS011;7803;48.130;13.788;2023-12-20T08:33:17;4.32;;;3.92;;
15408;SDS011;7803;48.130;13.788;2023-12-20T08:36:19;4.63;;;4.10;;
15408;SDS011;7803;48.130;13.788;2023-12-20T08:39:23;4.90;;;4.40;;
15408;SDS011;7803;48.130;13.788;2023-12-20T08:42:26;4.53;;;4.13;;
15408;SDS011;7803;48.130;13.788;2023-12-20T08:45:31;4.70;;;4.20;;
15408;SDS011;7803;48.130;13.788;2023-12-20T08:48:33;4.95;;;4.45;;
15408;SDS011;7803;48.130;13.788;2023-12-20T08:51:35;4.88;;;4.38;;
15408;SDS011;7803;48.130;13.788;2023-12-20T08:54:40;4.60;;;4.20;;
15408;SDS011;7803;48.130;13.788;2023-12-20T08:57:43;4.88;;;4.20;;
15408;SDS011;7803;48.130;13.788;2023-12-20T09:00:45;4.35;;;3.95;;
15408;SDS011;7803;48.130;13.788;2023-12-20T09:03:47;5.15;;;4.38;;
15408;SDS011;7803;48.130;13.788;2023-12-20T09:06:49;4.93;;;4.13;;
15408;SDS011;7803;48.130;13.788;2023-12-20T09:09:51;4.30;;;3.90;;
15408;SDS011;7803;48.130;13.788;2023-12-20T09:12:55;4.40;;;4.00;;
15408;SDS011;7803;48.130;13.788;2023-12-20T09:15:57;4.60;;;4.10;;
15408;SDS011;7803;48.130;13.788;2023-12-20T09:18:59;4.25;;;3.80;;
15408;SDS011;7803;48.130;13.788;2023-12-20T09:22:01;4.50;;;4.10;;
15408;SDS011;7803;48.130;13.788;2023-12-20T09:25:04;4.60;;;3.88;;
15408;SDS011;7803;48.130;13.788;2023-12-20T09:28:08;4.65;;;3.95;;
15408;SDS011;7803;48.130;13.788;2023-12-20T09:31:10;4.22;;;3.83;;
15408;SDS011;7803;48.130;13.788;2023-12-20T09:34:13;4.05;;;3.65;;
15408;SDS011;7803;48.130;13.788;2023-12-20T09:37:17;4.20;;;3.80;;
15408;SDS011;7803;48.130;13.788;2023-12-20T09:40:19;4.20;;;3.80;;
15408;SDS011;7803;48.130;13.788;2023-12-20T09:43:23;4.20;;;3.80;;
15408;SDS011;7803;48.130;13.788;2023-12-20T09:46:28;4.00;;;3.60;;
15408;SDS011;7803;48.130;13.788;2023-12-20T09:49:33;4.45;;;3.67;;
15408;SDS011;7803;48.130;13.788;2023-12-20T09:52:36;3.97;;;3.33;;
15408;SDS011;7803;48.130;13.788;2023-12-20T09:55:40;5.22;;;3.95;;
15408;SDS011;7803;48.130;13.788;2023-12-20T09:58:44;4.15;;;3.75;;
15408;SDS011;7803;48.130;13.788;2023-12-20T10:01:46;3.70;;;3.30;;
15408;SDS011;7803;48.130;13.788;2023-12-20T10:04:49;3.65;;;3.25;;
15408;SDS011;7803;48.130;13.788;2023-12-20T10:07:51;3.50;;;3.20;;
15408;SDS011;7803;48.130;13.788;2023-12-20T10:10:53;3.97;;;3.20;;
15408;SDS011;7803;48.130;13.788;2023-12-20T10:14:00;3.80;;;3.40;;
15408;SDS011;7803;48.130;13.788;2023-12-20T10:17:02;3.72;;;3.20;;
15408;SDS011;7803;48.130;13.788;2023-12-20T10:20:05;4.10;;;3.45;;
15408;SDS011;7803;48.130;13.788;2023-12-20T10:23:10;3.58;;;3.20;;
15408;SDS011;7803;48.130;13.788;2023-12-20T10:26:18;3.47;;;3.17;;
15408;SDS011;7803;48.130;13.788;2023-12-20T10:29:22;3.45;;;3.08;;
15408;SDS011;7803;48.130;13.788;2023-12-20T10:32:25;3.90;;;3.20;;
15408;SDS011;7803;48.130;13.788;2023-12-20T10:35:28;3.20;;;2.90;;
15408;SDS011;7803;48.130;13.788;2023-12-20T10:38:30;4.78;;;3.47;;
15408;SDS011;7803;48.130;13.788;2023-12-20T10:41:32;3.47;;;3.17;;
15408;SDS011;7803;48.130;13.788;2023-12-20T10:44:42;3.85;;;3.50;;
15408;SDS011;7803;48.130;13.788;2023-12-20T10:47:44;5.20;;;3.42;;
15408;SDS011;7803;48.130;13.788;2023-12-20T10:50:48;3.63;;;3.03;;
15408;SDS011;7803;48.130;13.788;2023-12-20T10:53:51;4.18;;;3.35;;
15408;SDS011;7803;48.130;13.788;2023-12-20T10:56:54;3.65;;;3.17;;
15408;SDS011;7803;48.130;13.788;2023-12-20T11:00:00;3.47;;;2.92;;
15408;SDS011;7803;48.130;13.788;2023-12-20T11:03:05;3.45;;;3.00;;
15408;SDS011;7803;48.130;13.788;2023-12-20T11:06:10;3.42;;;3.10;;
15408;SDS011;7803;48.130;13.788;2023-12-20T11:09:22;3.75;;;3.15;;
15408;SDS011;7803;48.130;13.788;2023-12-20T11:12:31;4.07;;;3.42;;
15408;SDS011;7803;48.130;13.788;2023-12-20T11:15:40;3.78;;;3.10;;
15408;SDS011;7803;48.130;13.788;2023-12-20T11:18:42;5.80;;;3.15;;
15408;SDS011;7803;48.130;13.788;2023-12-20T11:21:46;3.05;;;2.75;;
15408;SDS011;7803;48.130;13.788;2023-12-20T11:24:49;2.90;;;2.60;;
15408;SDS011;7803;48.130;13.788;2023-12-20T11:28:09;3.30;;;2.80;;
15408;SDS011;7803;48.130;13.788;2023-12-20T11:31:13;2.58;;;2.35;;
15408;SDS011;7803;48.130;13.788;2023-12-20T11:34:17;3.00;;;2.70;;
15408;SDS011;7803;48.130;13.788;2023-12-20T11:37:19;2.83;;;2.55;;
15408;SDS011;7803;48.130;13.788;2023-12-20T11:40:22;2.85;;;2.55;;
15408;SDS011;7803;48.130;13.788;2023-12-20T11:43:31;2.70;;;2.50;;
15408;SDS011;7803;48.130;13.788;2023-12-20T11:46:38;2.80;;;2.50;;
15408;SDS011;7803;48.130;13.788;2023-12-20T11:49:40;2.65;;;2.35;;
15408;SDS011;7803;48.130;13.788;2023-12-20T11:52:42;2.92;;;2.50;;
15408;SDS011;7803;48.130;13.788;2023-12-20T11:55:47;3.25;;;2.60;;
15408;SDS011;7803;48.130;13.788;2023-12-20T11:58:49;2.97;;;2.60;;
15408;SDS011;7803;48.130;13.788;2023-12-20T12:01:52;2.75;;;2.47;;
15408;SDS011;7803;48.130;13.788;2023-12-20T12:04:56;2.60;;;2.40;;
15408;SDS011;7803;48.130;13.788;2023-12-20T12:07:58;2.50;;;2.15;;
15408;SDS011;7803;48.130;13.788;2023-12-20T12:11:00;2.92;;;2.30;;
15408;SDS011;7803;48.130;13.788;2023-12-20T12:14:02;2.83;;;2.33;;
15408;SDS011;7803;48.130;13.788;2023-12-20T12:17:06;2.50;;;2.30;;
15408;SDS011;7803;48.130;13.788;2023-12-20T12:20:11;3.33;;;2.42;;
15408;SDS011;7803;48.130;13.788;2023-12-20T12:23:13;2.88;;;2.30;;
15408;SDS011;7803;48.130;13.788;2023-12-20T12:26:15;3.80;;;2.83;;
15408;SDS011;7803;48.130;13.788;2023-12-20T12:29:17;5.03;;;2.58;;
15408;SDS011;7803;48.130;13.788;2023-12-20T12:32:21;5.55;;;2.60;;
15408;SDS011;7803;48.130;13.788;2023-12-20T12:35:23;6.70;;;2.90;;
15408;SDS011;7803;48.130;13.788;2023-12-20T12:38:25;13.25;;;3.45;;
15408;SDS011;7803;48.130;13.788;2023-12-20T12:41:28;8.18;;;3.65;;
15408;SDS011;7803;48.130;13.788;2023-12-20T12:44:30;6.78;;;3.15;;
15408;SDS011;7803;48.130;13.788;2023-12-20T12:47:34;4.70;;;2.90;;
15408;SDS011;7803;48.130;13.788;2023-12-20T12:50:36;5.55;;;2.83;;
15408;SDS011;7803;48.130;13.788;2023-12-20T12:53:38;6.25;;;2.55;;
15408;SDS011;7803;48.130;13.788;2023-12-20T12:56:40;8.43;;;2.95;;
15408;SDS011;7803;48.130;13.788;2023-12-20T12:59:42;4.57;;;2.88;;
15408;SDS011;7803;48.130;13.788;2023-12-20T13:02:47;5.47;;;2.80;;
15408;SDS011;7803;48.130;13.788;2023-12-20T13:05:49;4.10;;;2.30;;
15408;SDS011;7803;48.130;13.788;2023-12-20T13:08:51;4.75;;;2.60;;
15408;SDS011;7803;48.130;13.788;2023-12-20T13:11:53;5.57;;;2.55;;
15408;SDS011;7803;48.130;13.788;2023-12-20T13:14:55;4.50;;;2.55;;
15408;SDS011;7803;48.130;13.788;2023-12-20T13:17:58;3.47;;;2.20;;
15408;SDS011;7803;48.130;13.788;2023-12-20T13:21:01;3.45;;;2.35;;
15408;SDS011;7803;48.130;13.788;2023-12-20T13:24:03;5.60;;;2.80;;
15408;SDS011;7803;48.130;13.788;2023-12-20T13:27:06;5.50;;;2.75;;
15408;SDS011;7803;48.130;13.788;2023-12-20T13:30:08;2.72;;;2.00;;
15408;SDS011;7803;48.130;13.788;2023-12-20T13:33:12;3.65;;;2.15;;
15408;SDS011;7803;48.130;13.788;2023-12-20T13:36:14;3.78;;;1.90;;
15408;SDS011;7803;48.130;13.788;2023-12-20T13:39:16;3.83;;;2.10;;
15408;SDS011;7803;48.130;13.788;2023-12-20T13:42:18;2.20;;;1.92;;
15408;SDS011;7803;48.130;13.788;2023-12-20T13:45:20;3.03;;;2.10;;
15408;SDS011;7803;48.130;13.788;2023-12-20T13:48:23;3.28;;;2.17;;
15408;SDS011;7803;48.130;13.788;2023-12-20T13:51:25;2.78;;;2.00;;
15408;SDS011;7803;48.130;13.788;2023-12-20T13:54:27;3.92;;;2.10;;
15408;SDS011;7803;48.130;13.788;2023-12-20T13:57:29;2.63;;;1.80;;
15408;SDS011;7803;48.130;13.788;2023-12-20T14:00:31;2.83;;;1.80;;
15408;SDS011;7803;48.130;13.788;2023-12-20T14:03:35;3.67;;;1.90;;
15408;SDS011;7803;48.130;13.788;2023-12-20T14:06:36;2.15;;;1.70;;
15408;SDS011;7803;48.130;13.788;2023-12-20T14:09:39;2.85;;;1.77;;
15408;SDS011;7803;48.130;13.788;2023-12-20T14:12:45;2.67;;;2.00;;
15408;SDS011;7803;48.130;13.788;2023-12-20T14:15:47;4.88;;;2.55;;
15408;SDS011;7803;48.130;13.788;2023-12-20T14:18:50;2.47;;;1.85;;
15408;SDS011;7803;48.130;13.788;2023-12-20T14:21:53;2.70;;;1.88;;
15408;SDS011;7803;48.130;13.788;2023-12-20T14:24:55;2.40;;;1.63;;
15408;SDS011;7803;48.130;13.788;2023-12-20T14:27:57;2.95;;;1.80;;
15408;SDS011;7803;48.130;13.788;2023-12-20T14:30:59;2.33;;;1.70;;
15408;SDS011;7803;48.130;13.788;2023-12-20T14:34:03;2.42;;;1.75;;
15408;SDS011;7803;48.130;13.788;2023-12-20T14:37:05;2.50;;;1.58;;
15408;SDS011;7803;48.130;13.788;2023-12-20T14:40:07;3.75;;;2.03;;
15408;SDS011;7803;48.130;13.788;2023-12-20T14:43:15;2.20;;;1.63;;
15408;SDS011;7803;48.130;13.788;2023-12-20T14:46:17;4.32;;;2.33;;
15408;SDS011;7803;48.130;13.788;2023-12-20T14:49:21;2.40;;;1.70;;
15408;SDS011;7803;48.130;13.788;2023-12-20T14:52:23;4.63;;;2.33;;
15408;SDS011;7803;48.130;13.788;2023-12-20T14:55:25;2.95;;;1.48;;
15408;SDS011;7803;48.130;13.788;2023-12-20T14:58:27;2.63;;;1.60;;
15408;SDS011;7803;48.130;13.788;2023-12-20T15:01:30;2.13;;;1.60;;
15408;SDS011;7803;48.130;13.788;2023-12-20T15:04:33;2.42;;;1.65;;
15408;SDS011;7803;48.130;13.788;2023-12-20T15:07:35;3.30;;;1.67;;
15408;SDS011;7803;48.130;13.788;2023-12-20T15:10:38;2.22;;;1.48;;
15408;SDS011;7803;48.130;13.788;2023-12-20T15:13:39;1.90;;;1.40;;
15408;SDS011;7803;48.130;13.788;2023-12-20T15:16:42;3.42;;;2.00;;
15408;SDS011;7803;48.130;13.788;2023-12-20T15:19:45;2.67;;;1.63;;
15408;SDS011;7803;48.130;13.788;2023-12-20T15:22:47;3.03;;;1.65;;
15408;SDS011;7803;48.130;13.788;2023-12-20T15:25:49;1.70;;;1.40;;
15408;SDS011;7803;48.130;13.788;2023-12-20T15:28:51;3.92;;;1.80;;
15408;SDS011;7803;48.130;13.788;2023-12-20T15:31:54;2.78;;;1.85;;
15408;SDS011;7803;48.130;13.788;2023-12-20T15:34:57;1.42;;;1.20;;
15408;SDS011;7803;48.130;13.788;2023-12-20T15:37:59;1.67;;;1.30;;
15408;SDS011;7803;48.130;13.788;2023-12-20T15:41:01;1.70;;;1.23;;
15408;SDS011;7803;48.130;13.788;2023-12-20T15:44:03;1.70;;;1.30;;
15408;SDS011;7803;48.130;13.788;2023-12-20T15:47:05;1.60;;;1.40;;
15408;SDS011;7803;48.130;13.788;2023-12-20T15:50:08;1.88;;;1.20;;
15408;SDS011;7803;48.130;13.788;2023-12-20T15:53:13;1.63;;;1.20;;
15408;SDS011;7803;48.130;13.788;2023-12-20T15:56:15;1.95;;;1.45;;
15408;SDS011;7803;48.130;13.788;2023-12-20T15:59:17;1.98;;;1.38;;
15408;SDS011;7803;48.130;13.788;2023-12-20T16:02:19;1.75;;;1.30;;
15408;SDS011;7803;48.130;13.788;2023-12-20T16:05:24;2.13;;;1.60;;
15408;SDS011;7803;48.130;13.788;2023-12-20T16:08:25;2.45;;;1.40;;
15408;SDS011;7803;48.130;13.788;2023-12-20T16:11:28;1.67;;;1.40;;
15408;SDS011;7803;48.130;13.788;2023-12-20T16:14:30;1.65;;;1.30;;
15408;SDS011;7803;48.130;13.788;2023-12-20T16:17:32;1.73;;;1.30;;
15408;SDS011;7803;48.130;13.788;2023-12-20T16:20:37;2.85;;;1.42;;
15408;SDS011;7803;48.130;13.788;2023-12-20T16:23:39;1.80;;;1.20;;
15408;SDS011;7803;48.130;13.788;2023-12-20T16:26:41;2.63;;;1.63;;
15408;SDS011;7803;48.130;13.788;2023-12-20T16:29:42;1.83;;;1.27;;
15408;SDS011;7803;48.130;13.788;2023-12-20T16:32:45;1.23;;;1.08;;
15408;SDS011;7803;48.130;13.788;2023-12-20T16:35:48;1.40;;;1.20;;
15408;SDS011;7803;48.130;13.788;2023-12-20T16:38:50;1.77;;;1.20;;
15408;SDS011;7803;48.130;13.788;2023-12-20T16:41:52;3.97;;;1.85;;
15408;SDS011;7803;48.130;13.788;2023-12-20T16:44:54;2.47;;;1.50;;
15408;SDS011;7803;48.130;13.788;2023-12-20T16:47:56;2.30;;;1.35;;
15408;SDS011;7803;48.130;13.788;2023-12-20T16:50:59;1.45;;;1.15;;
15408;SDS011;7803;48.130;13.788;2023-12-20T16:54:02;3.42;;;1.67;;
15408;SDS011;7803;48.130;13.788;2023-12-20T16:57:04;1.58;;;1.20;;
15408;SDS011;7803;48.130;13.788;2023-12-20T17:00:07;1.75;;;1.30;;
15408;SDS011;7803;48.130;13.788;2023-12-20T17:03:09;1.10;;;1.00;;
15408;SDS011;7803;48.130;13.788;2023-12-20T17:06:12;2.65;;;1.55;;
15408;SDS011;7803;48.130;13.788;2023-12-20T17:09:15;2.78;;;1.52;;
15408;SDS011;7803;48.130;13.788;2023-12-20T17:12:17;1.60;;;1.02;;
15408;SDS011;7803;48.130;13.788;2023-12-20T17:15:19;2.08;;;1.33;;
15408;SDS011;7803;48.130;13.788;2023-12-20T17:18:21;1.48;;;1.10;;
15408;SDS011;7803;48.130;13.788;2023-12-20T17:21:26;1.25;;;0.95;;
15408;SDS011;7803;48.130;13.788;2023-12-20T17:24:28;1.80;;;1.20;;
15408;SDS011;7803;48.130;13.788;2023-12-20T17:27:30;1.42;;;1.15;;
15408;SDS011;7803;48.130;13.788;2023-12-20T17:30:32;2.38;;;1.35;;
15408;SDS011;7803;48.130;13.788;2023-12-20T17:33:34;2.50;;;1.42;;
15408;SDS011;7803;48.130;13.788;2023-12-20T17:36:38;1.92;;;1.40;;
15408;SDS011;7803;48.130;13.788;2023-12-20T17:39:41;2.00;;;1.30;;
15408;SDS011;7803;48.130;13.788;2023-12-20T17:42:44;1.50;;;1.20;;
15408;SDS011;7803;48.130;13.788;2023-12-20T17:45:46;1.55;;;1.02;;
15408;SDS011;7803;48.130;13.788;2023-12-20T17:48:49;1.50;;;1.13;;
15408;SDS011;7803;48.130;13.788;2023-12-20T17:51:53;1.70;;;1.13;;
15408;SDS011;7803;48.130;13.788;2023-12-20T17:54:55;1.48;;;1.02;;
15408;SDS011;7803;48.130;13.788;2023-12-20T17:57:59;1.30;;;1.02;;
15408;SDS011;7803;48.130;13.788;2023-12-20T18:01:01;2.55;;;1.25;;
15408;SDS011;7803;48.130;13.788;2023-12-20T18:04:03;2.28;;;1.30;;
15408;SDS011;7803;48.130;13.788;2023-12-20T18:07:08;2.97;;;1.30;;
15408;SDS011;7803;48.130;13.788;2023-12-20T18:10:12;2.90;;;1.30;;
15408;SDS011;7803;48.130;13.788;2023-12-20T18:13:15;3.60;;;1.60;;
15408;SDS011;7803;48.130;13.788;2023-12-20T18:16:18;2.05;;;1.25;;
15408;SDS011;7803;48.130;13.788;2023-12-20T18:19:21;2.10;;;1.20;;